createdAt,value
2022-11-29T00:03:42.097Z,1.52
2022-11-29T00:08:45.043Z,1.63
2022-11-29T00:13:46.781Z,1.20
2022-11-29T00:18:49.612Z,3.75
2022-11-29T00:23:51.632Z,7.30
2022-11-29T00:28:53.790Z,2.85
2022-11-29T00:33:57.062Z,1.00
2022-11-29T00:38:59.602Z,4.63
2022-11-29T00:44:01.525Z,2.92
2022-11-29T00:49:04.001Z,3.65
2022-11-29T00:54:06.180Z,1.00
2022-11-29T00:59:08.069Z,2.38
2022-11-29T01:04:10.076Z,1.17
2022-11-29T01:09:12.192Z,3.92
2022-11-29T01:14:14.725Z,1.77
2022-11-29T01:19:16.494Z,1.20
2022-11-29T01:24:18.410Z,0.63
2022-11-29T01:29:20.514Z,0.88
2022-11-29T01:34:22.581Z,0.63
2022-11-29T01:39:24.474Z,1.20
2022-11-29T01:44:26.463Z,4.18
2022-11-29T01:49:36.414Z,1.27
2022-11-29T01:54:44.127Z,1.67
2022-11-29T01:59:52.639Z,1.08
2022-11-29T02:04:54.846Z,0.93
2022-11-29T02:09:56.647Z,1.40
2022-11-29T02:14:58.589Z,0.68
2022-11-29T02:20:15.660Z,1.90
2022-11-29T02:25:42.395Z,1.38
2022-11-29T02:31:19.575Z,1.45
2022-11-29T02:36:39.281Z,1.67
2022-11-29T02:42:28.044Z,1.50
2022-11-29T02:47:35.564Z,0.80
2022-11-29T02:53:20.813Z,3.20
2022-11-29T02:58:42.235Z,0.98
2022-11-29T03:03:53.287Z,1.77
2022-11-29T03:09:16.751Z,1.80
2022-11-29T03:14:34.940Z,1.50
2022-11-29T03:20:07.580Z,2.08
2022-11-29T03:25:16.741Z,1.55
2022-11-29T03:30:19.439Z,0.60
2022-11-29T03:35:27.629Z,3.20
2022-11-29T03:41:01.609Z,1.50
2022-11-29T03:46:11.665Z,0.82
2022-11-29T03:51:22.282Z,1.15
2022-11-29T03:56:39.955Z,0.55
2022-11-29T04:02:26.973Z,0.98
2022-11-29T04:07:37.923Z,1.00
2022-11-29T04:13:04.598Z,1.25
2022-11-29T04:18:26.306Z,2.63
2022-11-29T04:23:28.005Z,1.38
2022-11-29T04:28:45.009Z,0.40
2022-11-29T04:34:31.485Z,0.77
2022-11-29T04:40:02.378Z,2.58
2022-11-29T04:45:35.534Z,0.80
2022-11-29T04:51:06.697Z,0.90
2022-11-29T04:56:18.025Z,0.63
2022-11-29T05:01:58.010Z,1.17
2022-11-29T05:07:08.755Z,1.98
2022-11-29T05:12:22.488Z,0.95
2022-11-29T05:17:50.722Z,0.73
2022-11-29T05:23:18.122Z,2.22
2022-11-29T05:28:38.107Z,1.30
2022-11-29T05:33:52.857Z,0.90
2022-11-29T05:39:19.776Z,0.80
2022-11-29T05:44:37.701Z,1.88
2022-11-29T05:49:45.364Z,0.57
2022-11-29T05:55:13.867Z,0.95
2022-11-29T06:00:19.010Z,0.52
2022-11-29T06:05:27.317Z,0.70
2022-11-29T06:10:34.056Z,1.50
2022-11-29T06:16:17.602Z,2.10
2022-11-29T06:21:41.045Z,0.80
2022-11-29T06:27:22.545Z,1.00
2022-11-29T06:32:54.950Z,0.95
2022-11-29T06:38:03.545Z,2.55
2022-11-29T06:43:05.738Z,1.13
2022-11-29T06:48:12.668Z,1.35
2022-11-29T06:53:39.646Z,1.95
2022-11-29T06:59:11.993Z,0.70
2022-11-29T07:04:14.261Z,0.82
2022-11-29T07:09:18.898Z,2.28
2022-11-29T07:14:21.126Z,0.73
2022-11-29T07:19:25.905Z,0.93
2022-11-29T07:24:40.373Z,1.52
2022-11-29T07:30:00.418Z,1.80
2022-11-29T07:35:15.576Z,1.23
2022-11-29T07:40:34.430Z,1.25
2022-11-29T07:45:40.328Z,1.92
2022-11-29T07:50:42.626Z,1.48
2022-11-29T07:55:45.058Z,1.55
2022-11-29T08:00:47.409Z,1.90
2022-11-29T08:05:49.242Z,16.45
2022-11-29T08:10:51.175Z,10.13
2022-11-29T08:15:53.183Z,8.70
2022-11-29T08:20:55.252Z,12.88
2022-11-29T08:26:01.633Z,7.78
2022-11-29T08:31:05.635Z,12.30
2022-11-29T08:36:09.113Z,10.55
2022-11-29T08:41:14.168Z,8.98
2022-11-29T08:46:18.786Z,9.27
2022-11-29T08:51:21.114Z,11.90
2022-11-29T08:57:10.127Z,10.65
2022-11-29T09:01:45.000Z,11.15
2022-11-29T09:06:49.765Z,11.77
2022-11-29T09:11:51.822Z,9.18
2022-11-29T09:16:53.820Z,8.32
2022-11-29T09:21:55.666Z,18.85
2022-11-29T09:26:58.189Z,9.65
2022-11-29T09:32:00.220Z,10.88
2022-11-29T09:37:02.288Z,10.07
2022-11-29T09:42:38.236Z,9.98
2022-11-29T09:48:21.261Z,12.10
2022-11-29T09:53:43.684Z,14.02
2022-11-29T09:58:57.811Z,10.77
2022-11-29T10:04:14.371Z,8.98
2022-11-29T10:09:33.763Z,20.55
2022-11-29T10:14:59.504Z,8.40
2022-11-29T10:20:15.700Z,6.10
2022-11-29T10:25:25.524Z,14.30
2022-11-29T10:30:27.404Z,7.45
2022-11-29T10:35:29.753Z,6.88
2022-11-29T10:40:35.143Z,6.75
2022-11-29T10:45:50.840Z,4.95
2022-11-29T10:50:53.394Z,7.95
2022-11-29T10:56:01.309Z,4.78
2022-11-29T11:01:09.260Z,5.40
2022-11-29T11:06:17.549Z,6.95
2022-11-29T11:11:31.482Z,7.13
2022-11-29T11:16:37.312Z,7.28
2022-11-29T11:21:39.738Z,5.05
2022-11-29T11:26:44.043Z,5.70
2022-11-29T11:31:59.102Z,5.18
2022-11-29T11:37:16.166Z,4.68
2022-11-29T11:42:38.301Z,7.50
2022-11-29T11:47:52.960Z,3.30
2022-11-29T11:53:29.089Z,4.07
2022-11-29T11:58:36.475Z,4.45
2022-11-29T12:03:56.943Z,4.93
2022-11-29T12:09:16.794Z,5.38
2022-11-29T12:14:27.350Z,5.50
2022-11-29T12:19:39.706Z,6.32
2022-11-29T12:24:51.069Z,3.65
2022-11-29T12:29:52.867Z,3.55
2022-11-29T12:35:24.442Z,3.72
2022-11-29T12:40:54.398Z,3.50
2022-11-29T12:46:11.487Z,4.28
2022-11-29T12:51:29.590Z,3.47
2022-11-29T12:56:41.733Z,4.97
2022-11-29T13:02:20.544Z,5.20
2022-11-29T13:07:56.282Z,5.65
2022-11-29T13:13:12.167Z,3.08
2022-11-29T13:18:37.901Z,3.58
2022-11-29T13:24:12.976Z,5.63
2022-11-29T13:29:18.297Z,2.97
2022-11-29T13:34:30.835Z,2.85
2022-11-29T13:40:04.773Z,3.28
2022-11-29T13:45:32.709Z,3.90
2022-11-29T13:50:45.145Z,3.80
2022-11-29T13:56:01.957Z,3.50
2022-11-29T14:01:09.904Z,2.60
2022-11-29T14:06:21.815Z,2.70
2022-11-29T14:11:57.390Z,4.75
2022-11-29T14:17:03.269Z,2.85
2022-11-29T14:22:18.603Z,3.85
2022-11-29T14:27:20.300Z,3.05
2022-11-29T14:32:27.581Z,2.85
2022-11-29T14:37:49.656Z,3.35
2022-11-29T14:42:53.139Z,4.47
2022-11-29T14:47:56.369Z,3.60
2022-11-29T14:52:59.129Z,3.67
2022-11-29T14:58:25.563Z,3.08
2022-11-29T15:03:33.389Z,4.47
2022-11-29T15:09:02.888Z,2.42
2022-11-29T15:14:06.823Z,3.42
2022-11-29T15:19:20.754Z,2.17
2022-11-29T15:24:28.261Z,2.90
2022-11-29T15:29:31.888Z,2.95
2022-11-29T15:34:50.722Z,1.70
2022-11-29T15:40:14.720Z,3.10
2022-11-29T15:45:31.789Z,2.20
2022-11-29T15:50:34.670Z,3.17
2022-11-29T15:55:37.341Z,2.03
2022-11-29T16:00:39.737Z,2.47
2022-11-29T16:05:41.694Z,3.03
2022-11-29T16:10:50.799Z,3.15
2022-11-29T16:16:22.949Z,2.85
2022-11-29T16:21:31.003Z,4.90
2022-11-29T16:26:37.622Z,3.17
2022-11-29T16:31:40.160Z,2.28
2022-11-29T16:36:42.444Z,1.88
2022-11-29T16:42:24.652Z,2.65
2022-11-29T16:47:45.112Z,1.83
2022-11-29T16:52:50.869Z,2.58
2022-11-29T16:57:57.118Z,1.85
2022-11-29T17:02:59.872Z,2.00
2022-11-29T17:08:01.952Z,2.40
2022-11-29T17:13:06.801Z,2.35
2022-11-29T17:18:08.582Z,4.32
2022-11-29T17:23:10.612Z,2.65
2022-11-29T17:28:12.511Z,3.58
2022-11-29T17:33:14.393Z,3.53
2022-11-29T17:38:16.427Z,3.40
2022-11-29T17:43:18.658Z,3.35
2022-11-29T17:48:20.723Z,3.42
2022-11-29T17:53:22.993Z,3.53
2022-11-29T17:58:24.858Z,5.57
2022-11-29T18:03:27.793Z,1.88
2022-11-29T18:08:29.935Z,2.47
2022-11-29T18:13:32.357Z,2.13
2022-11-29T18:18:35.714Z,1.77
2022-11-29T18:23:40.705Z,5.47
2022-11-29T18:28:44.258Z,2.60
2022-11-29T18:33:48.381Z,4.30
2022-11-29T18:38:56.825Z,4.30
2022-11-29T18:44:01.478Z,2.38
2022-11-29T18:49:06.005Z,2.67
2022-11-29T18:54:08.067Z,2.78
2022-11-29T18:59:17.340Z,2.33
2022-11-29T19:04:21.042Z,1.98
2022-11-29T19:09:23.526Z,4.32
2022-11-29T19:14:25.369Z,2.67
2022-11-29T19:19:27.245Z,3.58
2022-11-29T19:24:29.413Z,2.97
2022-11-29T19:29:35.197Z,2.20
2022-11-29T19:34:41.367Z,7.03
2022-11-29T19:39:43.444Z,2.90
2022-11-29T19:45:15.212Z,2.58
2022-11-29T19:50:07.777Z,2.60
2022-11-29T19:55:10.258Z,2.60
2022-11-29T20:00:13.034Z,2.47
2022-11-29T20:05:14.813Z,3.17
2022-11-29T20:10:16.900Z,2.13
2022-11-29T20:15:18.587Z,2.05
2022-11-29T20:20:21.549Z,2.95
2022-11-29T20:25:23.364Z,1.73
2022-11-29T20:30:26.544Z,2.50
2022-11-29T20:35:28.727Z,3.42
2022-11-29T20:40:49.609Z,4.18
2022-11-29T20:45:51.609Z,2.17
2022-11-29T20:50:58.613Z,2.55
2022-11-29T20:56:00.827Z,3.35
2022-11-29T21:01:03.749Z,3.03
2022-11-29T21:06:06.726Z,3.42
2022-11-29T21:11:12.181Z,6.47
2022-11-29T21:16:14.657Z,1.83
2022-11-29T21:21:25.052Z,2.78
2022-11-29T21:26:48.415Z,2.90
2022-11-29T21:31:52.914Z,3.92
2022-11-29T21:36:59.850Z,2.35
2022-11-29T21:42:02.454Z,2.63
2022-11-29T21:47:04.916Z,2.20
2022-11-29T21:52:07.475Z,4.25
2022-11-29T21:57:09.535Z,3.50
2022-11-29T22:02:11.625Z,3.15
2022-11-29T22:07:13.684Z,3.25
2022-11-29T22:12:33.220Z,6.97
2022-11-29T22:17:36.396Z,2.60
2022-11-29T22:22:38.254Z,2.95
2022-11-29T22:27:40.168Z,11.43
2022-11-29T22:32:42.179Z,2.80
2022-11-29T22:37:44.026Z,10.05
2022-11-29T22:42:45.931Z,3.60
2022-11-29T22:47:48.062Z,9.25
2022-11-29T22:52:49.887Z,2.53
2022-11-29T22:57:53.667Z,2.78
2022-11-29T23:02:58.257Z,4.43
2022-11-29T23:08:00.290Z,2.45
2022-11-29T23:13:03.154Z,2.80
2022-11-29T23:18:05.248Z,3.80
2022-11-29T23:23:07.198Z,3.00
2022-11-29T23:28:09.239Z,3.45
2022-11-29T23:33:11.386Z,5.45
2022-11-29T23:38:13.453Z,3.33
2022-11-29T23:43:15.498Z,3.63
2022-11-29T23:48:17.800Z,3.53
2022-11-29T23:53:20.042Z,4.35
2022-11-29T23:58:22.268Z,2.75
